Time;durP1;ratioP1;P1;durP2;ratioP2;P2;SDS_P1;SDS_P2;PMS_P1;PMS_P2;Temp;Humidity;BMP_temperature;BMP_pressure;BME280_temperature;BME280_humidity;BME280_pressure;Samples;Min_cycle;Max_cycle;Signal;HPM_P1;HPM_P2
2022/09/13 00:00:04;;;;;;;14.00;8.30;;;17.20;99.90;;;;;;5017185;28;20679;-83
2022/09/13 00:02:30;;;;;;;12.13;6.82;;;17.10;99.90;;;;;;5035210;28;20036;-82
2022/09/13 00:04:55;;;;;;;16.33;6.70;;;17.10;99.90;;;;;;5037268;28;20044;-82
2022/09/13 00:07:21;;;;;;;10.10;6.35;;;17.10;99.90;;;;;;5053518;28;20542;-83
2022/09/13 00:09:46;;;;;;;8.55;5.90;;;17.00;99.90;;;;;;5036863;28;20489;-83
2022/09/13 00:12:12;;;;;;;10.30;7.07;;;16.90;99.90;;;;;;5053356;28;20071;-83
2022/09/13 00:14:37;;;;;;;9.70;6.25;;;16.80;99.90;;;;;;5036954;28;20036;-82
2022/09/13 00:17:03;;;;;;;10.65;6.28;;;16.80;99.90;;;;;;5053620;28;20091;-83
2022/09/13 00:19:29;;;;;;;12.50;6.88;;;16.80;99.90;;;;;;5053563;28;20123;-82
2022/09/13 00:21:54;;;;;;;10.90;6.63;;;16.80;99.90;;;;;;5052898;28;20047;-82
2022/09/13 00:24:20;;;;;;;9.45;5.90;;;16.80;99.90;;;;;;5053503;28;20036;-82
2022/09/13 00:26:45;;;;;;;9.75;6.78;;;16.70;99.90;;;;;;5071241;28;20051;-82
2022/09/13 00:29:11;;;;;;;12.25;7.97;;;16.70;99.90;;;;;;5053909;28;20123;-83
2022/09/13 00:31:37;;;;;;;12.50;7.05;;;16.70;99.90;;;;;;5053501;28;20041;-83
2022/09/13 00:34:02;;;;;;;12.75;8.13;;;16.80;99.90;;;;;;5053638;28;20083;-83
2022/09/13 00:36:28;;;;;;;13.18;7.15;;;16.80;99.90;;;;;;5053149;28;20043;-82
2022/09/13 00:38:54;;;;;;;15.75;7.55;;;16.80;99.90;;;;;;5053300;28;20055;-82
2022/09/13 00:41:20;;;;;;;14.40;8.40;;;16.80;99.90;;;;;;5052928;28;20032;-82
2022/09/13 00:43:54;;;;;;;16.42;8.00;;;16.80;99.90;;;;;;5054177;28;20101;-81
2022/09/13 00:46:32;;;;;;;11.95;8.25;;;16.80;99.90;;;;;;5037847;28;20044;-81
2022/09/13 00:49:33;;;;;;;10.75;8.05;;;16.80;99.90;;;;;;5054568;28;20032;-81
2022/09/13 00:52:05;;;;;;;9.88;7.18;;;16.70;99.90;;;;;;5041940;28;20089;-81
2022/09/13 00:54:39;;;;;;;15.82;8.10;;;16.80;99.90;;;;;;5058259;28;20067;-81
2022/09/13 00:57:07;;;;;;;15.55;8.50;;;16.80;99.90;;;;;;5058549;28;20080;-81
2022/09/13 00:59:41;;;;;;;12.30;7.80;;;16.80;99.90;;;;;;5041641;28;20052;-81
2022/09/13 01:02:08;;;;;;;15.77;8.88;;;16.80;99.90;;;;;;5057957;28;20401;-81
2022/09/13 01:04:35;;;;;;;14.82;9.38;;;16.90;99.90;;;;;;5058129;28;20052;-81
2022/09/13 01:07:05;;;;;;;13.75;10.00;;;16.90;99.90;;;;;;5058569;28;20059;-81
2022/09/13 01:09:35;;;;;;;15.20;9.55;;;16.90;99.90;;;;;;5058502;28;20366;-81
2022/09/13 01:12:11;;;;;;;15.93;10.13;;;16.90;99.90;;;;;;5058034;28;20409;-81
2022/09/13 01:14:37;;;;;;;15.90;9.40;;;16.90;99.90;;;;;;5058495;28;20044;-81
2022/09/13 01:17:03;;;;;;;14.52;9.90;;;16.90;99.90;;;;;;5041246;28;20409;-81
2022/09/13 01:19:28;;;;;;;14.63;10.57;;;16.90;99.90;;;;;;5057444;28;20047;-81
2022/09/13 01:22:23;;;;;;;16.52;10.60;;;16.90;99.90;;;;;;5041242;28;20079;-81
2022/09/13 01:24:48;;;;;;;16.73;10.63;;;16.90;99.90;;;;;;5040875;28;20073;-81
2022/09/13 01:27:31;;;;;;;20.00;11.00;;;16.80;99.90;;;;;;5057043;28;20036;-81
2022/09/13 01:30:15;;;;;;;16.92;10.68;;;16.90;99.90;;;;;;5057408;28;20182;-81
2022/09/13 01:32:56;;;;;;;16.85;10.38;;;16.90;99.90;;;;;;5040293;28;20070;-81
2022/09/13 01:35:40;;;;;;;16.25;10.88;;;16.90;99.90;;;;;;5041168;28;20132;-81
2022/09/13 01:38:37;;;;;;;18.23;10.18;;;16.80;99.90;;;;;;5040775;28;20052;-81
2022/09/13 01:41:15;;;;;;;17.17;11.25;;;16.90;99.90;;;;;;5057580;28;20049;-81
2022/09/13 01:44:11;;;;;;;21.40;11.02;;;16.90;99.90;;;;;;5040145;28;20044;-81
2022/09/13 01:47:02;;;;;;;19.40;11.98;;;16.90;99.90;;;;;;5039712;28;20044;-81
2022/09/13 01:49:49;;;;;;;17.73;11.73;;;16.90;99.90;;;;;;5056493;28;20041;-81
2022/09/13 01:52:38;;;;;;;18.45;11.38;;;16.90;99.90;;;;;;5055758;28;20036;-81
2022/09/13 01:55:16;;;;;;;20.42;11.77;;;16.90;99.90;;;;;;5057041;28;20098;-81
2022/09/13 01:57:57;;;;;;;19.33;12.30;;;16.90;99.90;;;;;;5056837;28;20048;-81
2022/09/13 02:00:23;;;;;;;22.42;12.25;;;16.90;99.90;;;;;;5056752;28;20128;-81
2022/09/13 02:02:50;;;;;;;23.90;13.32;;;16.90;99.90;;;;;;5055384;28;20115;-81
2022/09/13 02:05:16;;;;;;;20.65;11.60;;;16.90;99.90;;;;;;5056309;28;20045;-81
2022/09/13 02:07:45;;;;;;;21.83;13.18;;;16.90;99.90;;;;;;5039496;28;20094;-81
2022/09/13 02:10:33;;;;;;;22.30;13.43;;;16.90;99.90;;;;;;5056072;28;20045;-81
2022/09/13 02:13:04;;;;;;;22.88;13.95;;;17.00;99.90;;;;;;5055346;28;20052;-81
2022/09/13 02:15:43;;;;;;;19.65;12.85;;;16.90;99.90;;;;;;5074079;28;20040;-81
2022/09/13 02:18:17;;;;;;;22.30;13.98;;;16.90;99.90;;;;;;5056251;28;20489;-81
2022/09/13 02:20:46;;;;;;;23.15;14.38;;;17.00;99.90;;;;;;5039648;28;20400;-81
2022/09/13 02:23:35;;;;;;;25.35;15.07;;;17.00;99.90;;;;;;5055363;28;20063;-81
2022/09/13 02:26:03;;;;;;;24.63;13.77;;;17.00;99.90;;;;;;5038985;28;20493;-81
2022/09/13 02:28:37;;;;;;;23.50;14.88;;;16.90;99.90;;;;;;5055934;28;20044;-81
2022/09/13 02:31:06;;;;;;;26.73;14.82;;;17.00;99.90;;;;;;5039388;28;20048;-81
2022/09/13 02:33:42;;;;;;;26.30;15.75;;;17.00;99.90;;;;;;5055178;28;20569;-81
2022/09/13 02:36:13;;;;;;;25.17;16.00;;;17.00;99.90;;;;;;5056156;28;20039;-81
2022/09/13 02:38:48;;;;;;;27.83;16.55;;;17.00;99.90;;;;;;5038881;28;20473;-81
2022/09/13 02:41:31;;;;;;;25.55;15.98;;;17.00;99.90;;;;;;5039161;28;20511;-81
2022/09/13 02:44:26;;;;;;;25.13;15.15;;;17.00;99.90;;;;;;5038886;28;20093;-81
2022/09/13 02:46:54;;;;;;;27.67;16.02;;;17.00;99.90;;;;;;5041994;28;20106;-81
2022/09/13 02:49:30;;;;;;;30.00;17.60;;;17.00;99.90;;;;;;5038606;28;20040;-81
2022/09/13 02:52:38;;;;;;;32.08;17.23;;;17.00;99.90;;;;;;5055183;28;20036;-81
2022/09/13 02:55:24;;;;;;;30.08;18.38;;;17.10;99.90;;;;;;4940136;28;20047;-81
2022/09/13 02:57:59;;;;;;;29.15;16.50;;;17.10;99.90;;;;;;4936773;29;20050;-81
2022/09/13 03:00:26;;;;;;;24.42;15.82;;;17.10;99.90;;;;;;4989007;28;20060;-81
2022/09/13 03:02:55;;;;;;;25.60;15.50;;;17.10;99.90;;;;;;5051716;28;20053;-81
2022/09/13 03:05:21;;;;;;;28.90;16.65;;;17.10;99.90;;;;;;5051748;28;20055;-81
2022/09/13 03:07:48;;;;;;;27.13;16.20;;;17.10;99.90;;;;;;5051790;28;20045;-81
2022/09/13 03:10:14;;;;;;;28.23;15.68;;;17.10;99.90;;;;;;5018768;28;20448;-81
2022/09/13 03:13:06;;;;;;;27.67;16.70;;;17.10;99.90;;;;;;5050699;28;20404;-80
2022/09/13 03:15:31;;;;;;;28.77;16.23;;;17.10;99.90;;;;;;5051546;28;20044;-81
2022/09/13 03:18:09;;;;;;;24.70;15.27;;;17.10;99.90;;;;;;5018637;28;20042;-81
2022/09/13 03:21:02;;;;;;;26.52;16.70;;;17.10;99.90;;;;;;5051550;28;20049;-81
2022/09/13 03:23:54;;;;;;;23.15;14.60;;;17.10;99.90;;;;;;5018227;28;20041;-80
2022/09/13 03:26:50;;;;;;;27.65;16.13;;;17.10;99.90;;;;;;5017423;28;20110;-81
2022/09/13 03:29:24;;;;;;;23.88;15.70;;;17.10;99.90;;;;;;5018385;28;20205;-81
2022/09/13 03:32:02;;;;;;;23.92;15.48;;;17.10;99.90;;;;;;5050988;28;20084;-81
2022/09/13 03:34:50;;;;;;;25.48;15.52;;;17.10;99.90;;;;;;5051543;28;20067;-80
2022/09/13 03:37:42;;;;;;;27.35;16.05;;;17.10;99.90;;;;;;5018144;28;20045;-81
2022/09/13 03:40:16;;;;;;;26.27;15.30;;;17.20;99.90;;;;;;5034680;28;20051;-81
2022/09/13 03:42:49;;;;;;;35.38;17.75;;;17.10;99.90;;;;;;5051211;28;20116;-81
2022/09/13 03:45:22;;;;;;;25.92;15.30;;;17.20;99.90;;;;;;5034747;28;20041;-81
2022/09/13 03:47:50;;;;;;;27.20;16.17;;;17.10;99.90;;;;;;5052412;28;20043;-80
2022/09/13 03:50:20;;;;;;;30.02;16.75;;;17.10;99.90;;;;;;5018038;28;20045;-81
2022/09/13 03:52:49;;;;;;;27.05;15.63;;;17.20;99.90;;;;;;5033843;28;20045;-80
2022/09/13 03:55:19;;;;;;;28.27;16.30;;;17.20;99.90;;;;;;5017959;28;20569;-81
2022/09/13 03:57:45;;;;;;;24.92;15.85;;;17.10;99.90;;;;;;5054432;28;20047;-81
2022/09/13 04:00:13;;;;;;;27.40;16.63;;;17.10;99.90;;;;;;5037987;28;20384;-81
2022/09/13 04:02:38;;;;;;;29.85;16.48;;;17.10;99.90;;;;;;5054390;28;20067;-81
2022/09/13 04:05:04;;;;;;;28.52;16.63;;;17.20;99.90;;;;;;5054254;28;20040;-81
2022/09/13 04:07:30;;;;;;;30.30;17.08;;;17.20;99.90;;;;;;5037515;28;20036;-81
2022/09/13 04:09:55;;;;;;;29.80;17.27;;;17.10;99.90;;;;;;5054456;28;20040;-81
2022/09/13 04:12:21;;;;;;;31.83;17.58;;;17.20;99.90;;;;;;5037031;28;20068;-81
2022/09/13 04:14:47;;;;;;;32.28;17.45;;;17.20;99.90;;;;;;5054458;28;20439;-81
2022/09/13 04:17:13;;;;;;;28.48;17.40;;;17.10;99.90;;;;;;5054183;28;20048;-81
2022/09/13 04:19:39;;;;;;;30.73;17.45;;;17.10;99.90;;;;;;5054113;28;20048;-81
2022/09/13 04:22:05;;;;;;;29.58;18.13;;;17.20;99.90;;;;;;5037521;28;20512;-81
2022/09/13 04:24:31;;;;;;;30.15;18.38;;;17.20;99.90;;;;;;5037734;28;20075;-81
2022/09/13 04:26:57;;;;;;;28.77;17.63;;;17.20;99.90;;;;;;5050921;28;20021;-80
2022/09/13 04:29:24;;;;;;;30.13;17.45;;;17.20;99.90;;;;;;5078663;28;20048;-79
2022/09/13 04:31:51;;;;;;;34.00;17.67;;;17.20;99.90;;;;;;5060226;28;20025;-80
2022/09/13 04:34:18;;;;;;;28.27;16.75;;;17.20;99.90;;;;;;5048674;28;20651;-80
2022/09/13 04:36:46;;;;;;;27.65;16.48;;;17.20;99.90;;;;;;5073586;28;20653;-81
2022/09/13 04:39:15;;;;;;;32.13;17.83;;;17.10;99.90;;;;;;5038031;28;20040;-81
2022/09/13 04:41:43;;;;;;;28.80;17.20;;;17.10;99.90;;;;;;5038120;28;20509;-81
2022/09/13 04:44:09;;;;;;;29.85;16.55;;;17.10;99.90;;;;;;5037120;28;20040;-81
2022/09/13 04:46:34;;;;;;;37.83;18.73;;;17.10;99.90;;;;;;5054224;28;20362;-81
2022/09/13 04:49:00;;;;;;;28.33;16.95;;;17.10;99.90;;;;;;5054779;28;20040;-80
2022/09/13 04:51:26;;;;;;;33.72;18.10;;;17.10;99.90;;;;;;5053841;28;20120;-81
2022/09/13 04:53:54;;;;;;;29.73;17.00;;;17.10;99.90;;;;;;5054161;28;20109;-81
2022/09/13 04:56:20;;;;;;;30.10;16.70;;;17.10;99.90;;;;;;5055781;28;20036;-81
2022/09/13 04:58:45;;;;;;;31.35;16.17;;;17.10;99.90;;;;;;5057153;28;20119;-81
2022/09/13 05:01:11;;;;;;;34.58;17.95;;;17.10;99.90;;;;;;5040907;28;20076;-81
2022/09/13 05:03:37;;;;;;;32.60;18.10;;;17.20;99.90;;;;;;5038893;28;20028;-81
2022/09/13 05:06:04;;;;;;;29.02;16.23;;;17.20;99.90;;;;;;5053899;28;20565;-81
2022/09/13 05:08:30;;;;;;;30.02;17.10;;;17.20;99.90;;;;;;5053680;28;20050;-81
2022/09/13 05:10:57;;;;;;;35.40;19.00;;;17.20;99.90;;;;;;5054103;28;20040;-81
2022/09/13 05:13:23;;;;;;;31.08;17.63;;;17.30;99.90;;;;;;5054373;28;20064;-80
2022/09/13 05:15:49;;;;;;;36.22;17.35;;;17.30;99.90;;;;;;5054681;28;20040;-81
2022/09/13 05:18:14;;;;;;;26.77;15.15;;;17.30;99.90;;;;;;5054899;28;20090;-81
2022/09/13 05:20:41;;;;;;;26.45;15.50;;;17.30;99.90;;;;;;5037148;28;20049;-82
2022/09/13 05:23:07;;;;;;;27.88;15.07;;;17.30;99.90;;;;;;5036664;28;20040;-81
2022/09/13 05:25:32;;;;;;;30.15;14.68;;;17.40;99.90;;;;;;5072201;28;20119;-81
2022/09/13 05:27:58;;;;;;;23.08;14.35;;;17.40;99.90;;;;;;5055502;28;20033;-81
2022/09/13 05:30:23;;;;;;;23.23;12.85;;;17.40;99.90;;;;;;5055219;28;20086;-81
2022/09/13 05:32:49;;;;;;;24.02;12.23;;;17.50;99.90;;;;;;5039155;28;20056;-81
2022/09/13 05:35:15;;;;;;;20.77;12.80;;;17.50;99.90;;;;;;5038349;28;20041;-81
2022/09/13 05:37:40;;;;;;;18.60;12.23;;;17.50;99.90;;;;;;5041462;28;20040;-81
2022/09/13 05:40:06;;;;;;;20.00;12.07;;;17.50;99.90;;;;;;5077065;28;20869;-81
2022/09/13 05:42:32;;;;;;;18.92;10.75;;;17.50;99.90;;;;;;5056698;28;20040;-82
2022/09/13 05:44:57;;;;;;;20.75;11.32;;;17.50;99.90;;;;;;5057423;28;20171;-81
2022/09/13 05:47:23;;;;;;;23.02;10.50;;;17.60;99.90;;;;;;5058454;28;20403;-81
2022/09/13 05:49:49;;;;;;;21.52;10.10;;;17.60;99.90;;;;;;5058731;28;20047;-81
2022/09/13 05:52:14;;;;;;;16.85;9.43;;;17.60;99.90;;;;;;5056607;28;20043;-81
2022/09/13 05:54:40;;;;;;;16.58;9.23;;;17.60;99.90;;;;;;5039997;28;20408;-81
2022/09/13 05:57:05;;;;;;;17.05;8.35;;;17.50;99.90;;;;;;5057041;28;20051;-82
2022/09/13 05:59:31;;;;;;;16.33;8.95;;;17.60;99.90;;;;;;5057553;28;20040;-81
2022/09/13 06:01:57;;;;;;;12.93;7.45;;;17.60;99.90;;;;;;5056755;28;20044;-81
2022/09/13 06:04:23;;;;;;;12.30;7.00;;;17.70;99.90;;;;;;5056662;28;20131;-82
2022/09/13 06:06:49;;;;;;;10.95;6.68;;;17.60;99.90;;;;;;5039560;28;20136;-81
2022/09/13 06:09:14;;;;;;;11.90;6.40;;;17.60;99.90;;;;;;5057494;28;20049;-81
2022/09/13 06:11:40;;;;;;;9.77;5.43;;;17.70;99.90;;;;;;5056790;28;20569;-81
2022/09/13 06:14:06;;;;;;;9.98;5.32;;;17.70;99.90;;;;;;5040732;28;20119;-81
2022/09/13 06:16:32;;;;;;;8.10;5.45;;;17.70;99.90;;;;;;5057159;28;20393;-81
2022/09/13 06:18:58;;;;;;;7.95;3.95;;;17.70;99.90;;;;;;5040106;28;20043;-81
2022/09/13 06:21:24;;;;;;;10.85;3.67;;;17.60;99.90;;;;;;5056179;28;20049;-81
2022/09/13 06:23:51;;;;;;;7.63;3.70;;;17.70;99.90;;;;;;5056134;28;20036;-81
2022/09/13 06:26:22;;;;;;;3.85;3.30;;;17.60;99.90;;;;;;5056148;28;20037;-81
2022/09/13 06:28:49;;;;;;;4.70;3.22;;;17.60;99.90;;;;;;5041128;28;20037;-82
2022/09/13 06:31:17;;;;;;;7.47;3.72;;;17.70;99.90;;;;;;5057635;28;20048;-82
2022/09/13 06:33:43;;;;;;;7.47;4.05;;;17.60;99.90;;;;;;5055528;28;20052;-82
2022/09/13 06:36:17;;;;;;;3.90;2.80;;;17.60;99.90;;;;;;5055741;28;20036;-83
2022/09/13 06:39:03;;;;;;;8.48;3.13;;;17.60;99.90;;;;;;5060456;28;20053;-82
2022/09/13 06:41:29;;;;;;;7.45;3.15;;;17.70;99.90;;;;;;5038783;28;20080;-82
2022/09/13 06:43:57;;;;;;;4.05;2.53;;;17.60;99.90;;;;;;5055514;28;20539;-83
2022/09/13 06:46:23;;;;;;;4.75;2.60;;;17.60;99.90;;;;;;5040404;28;20040;-81
2022/09/13 06:48:48;;;;;;;5.43;2.58;;;17.70;99.90;;;;;;5038261;28;20033;-82
2022/09/13 06:51:17;;;;;;;3.05;2.10;;;17.60;99.90;;;;;;5055196;28;20036;-82
2022/09/13 06:53:44;;;;;;;6.07;2.17;;;17.60;99.90;;;;;;5055232;28;20048;-82
2022/09/13 06:56:15;;;;;;;3.47;1.63;;;17.60;99.90;;;;;;5055004;28;20090;-82
2022/09/13 06:58:44;;;;;;;3.53;2.03;;;17.60;99.90;;;;;;5038916;28;20086;-82
2022/09/13 07:01:23;;;;;;;8.00;2.70;;;17.60;99.90;;;;;;5038948;28;20401;-82
2022/09/13 07:03:56;;;;;;;5.07;1.80;;;17.60;99.90;;;;;;5038903;28;20044;-82
2022/09/13 07:06:28;;;;;;;3.60;2.13;;;17.60;99.90;;;;;;5038631;28;20040;-82
2022/09/13 07:08:55;;;;;;;7.03;2.03;;;17.60;99.90;;;;;;5055913;28;20045;-81
2022/09/13 07:11:23;;;;;;;6.57;1.95;;;17.60;99.90;;;;;;5039614;28;20075;-81
2022/09/13 07:13:50;;;;;;;5.20;2.28;;;17.50;99.90;;;;;;5039021;28;20037;-81
2022/09/13 07:16:17;;;;;;;4.15;2.08;;;17.60;99.90;;;;;;5055562;28;20037;-81
2022/09/13 07:18:43;;;;;;;4.88;1.90;;;17.60;99.90;;;;;;5056941;28;20048;-82
2022/09/13 07:21:10;;;;;;;2.17;1.33;;;17.50;99.90;;;;;;5056606;28;20082;-82
2022/09/13 07:23:38;;;;;;;2.40;1.65;;;17.60;99.90;;;;;;5038038;28;20044;-81
2022/09/13 07:26:05;;;;;;;3.78;1.80;;;17.50;99.90;;;;;;5041576;28;20075;-82
2022/09/13 07:28:42;;;;;;;5.53;2.50;;;17.50;99.90;;;;;;5055792;28;20515;-82
2022/09/13 07:31:09;;;;;;;8.52;2.58;;;17.60;99.90;;;;;;5040880;28;20133;-82
2022/09/13 07:33:36;;;;;;;4.00;2.47;;;17.60;99.90;;;;;;5056203;28;20076;-82
2022/09/13 07:36:05;;;;;;;5.43;2.20;;;17.70;99.90;;;;;;5057418;28;20318;-82
2022/09/13 07:38:33;;;;;;;8.45;2.70;;;17.70;99.90;;;;;;5058032;28;20074;-82
2022/09/13 07:40:59;;;;;;;4.47;2.55;;;17.70;99.90;;;;;;5054990;28;20040;-81
2022/09/13 07:43:25;;;;;;;6.15;2.88;;;17.80;99.90;;;;;;5054186;28;20066;-82
2022/09/13 07:46:08;;;;;;;4.80;2.05;;;17.90;99.90;;;;;;5054538;28;20045;-81
2022/09/13 07:48:36;;;;;;;3.20;2.17;;;17.90;99.90;;;;;;5055281;28;20048;-81
2022/09/13 07:51:16;;;;;;;4.20;2.05;;;17.90;99.90;;;;;;5056789;28;20066;-81
2022/09/13 07:53:43;;;;;;;8.85;2.17;;;18.00;99.90;;;;;;5055085;28;20037;-81
2022/09/13 07:56:18;;;;;;;9.10;2.45;;;18.10;99.90;;;;;;5051110;28;20040;-81
2022/09/13 07:58:45;;;;;;;2.80;1.98;;;18.10;99.90;;;;;;5052203;28;20047;-82
2022/09/13 08:01:13;;;;;;;3.50;1.80;;;18.20;99.90;;;;;;5055360;28;20040;-82
2022/09/13 08:03:39;;;;;;;9.70;2.10;;;18.30;99.90;;;;;;5055379;28;20515;-82
2022/09/13 08:06:06;;;;;;;5.72;1.90;;;18.60;99.90;;;;;;5055846;28;20040;-82
2022/09/13 08:08:32;;;;;;;5.32;1.95;;;18.60;99.90;;;;;;5055109;28;20033;-82
2022/09/13 08:11:00;;;;;;;2.67;1.70;;;19.00;99.90;;;;;;5055889;28;20044;-82
2022/09/13 08:13:26;;;;;;;6.72;1.73;;;19.40;99.90;;;;;;5055592;28;20424;-82
2022/09/13 08:15:51;;;;;;;7.78;1.70;;;20.10;99.90;;;;;;5038905;28;20040;-82
2022/09/13 08:18:18;;;;;;;11.48;1.58;;;20.30;99.90;;;;;;5055829;28;20055;-82
2022/09/13 08:20:44;;;;;;;3.70;1.30;;;20.20;99.90;;;;;;5055557;28;20041;-83
2022/09/13 08:23:11;;;;;;;4.85;1.27;;;20.00;99.90;;;;;;5054913;28;20415;-83
2022/09/13 08:25:37;;;;;;;3.45;1.00;;;19.80;99.90;;;;;;5055641;28;20072;-82
2022/09/13 08:28:09;;;;;;;7.25;1.25;;;19.70;99.90;;;;;;5055365;28;20044;-82
2022/09/13 08:30:36;;;;;;;;;;;19.60;99.90;;;;;;5055262;28;20400;-82
2022/09/13 08:33:04;;;;;;;3.47;0.93;;;19.50;99.90;;;;;;5037492;28;19967;-80
2022/09/13 08:35:33;;;;;;;4.65;1.02;;;19.40;99.90;;;;;;5054352;28;20033;-84
2022/09/13 08:38:04;;;;;;;6.22;1.20;;;19.40;99.90;;;;;;5036689;28;20493;-83
2022/09/13 08:41:28;;;;;;;2.97;0.85;;;19.40;99.90;;;;;;5016858;28;20056;-83
2022/09/13 08:48:15;;;;;;;3.40;1.00;;;19.40;99.90;;;;;;5023405;28;20099;-84
2022/09/13 08:55:00;;;;;;;5.13;1.10;;;19.50;99.90;;;;;;5055619;28;20063;-83
2022/09/13 09:02:07;;;;;;;4.45;0.88;;;19.40;99.90;;;;;;5068283;28;20112;-83
2022/09/13 09:04:54;;;;;;;3.30;0.80;;;19.70;99.90;;;;;;5035590;28;20036;-83
2022/09/13 09:08:03;;;;;;;13.80;1.52;;;20.30;99.90;;;;;;5032679;28;20099;-84
2022/09/13 09:11:54;;;;;;;5.13;1.00;;;20.80;99.90;;;;;;5009068;28;20045;-84
2022/09/13 09:18:37;;;;;;;3.42;1.05;;;20.90;99.90;;;;;;5032675;28;20048;-84
2022/09/13 09:21:30;;;;;;;4.32;1.00;;;20.90;99.90;;;;;;4957540;28;20070;-84
2022/09/13 09:24:26;;;;;;;5.15;1.25;;;20.90;99.90;;;;;;4941182;28;20507;-84
2022/09/13 09:27:53;;;;;;;1.17;0.60;;;20.80;99.90;;;;;;4957330;28;20066;-84
2022/09/13 09:30:20;;;;;;;4.07;1.02;;;20.70;99.90;;;;;;5011054;28;20036;-80
2022/09/13 09:32:49;;;;;;;5.07;0.93;;;20.90;99.90;;;;;;5024429;28;20059;-79
2022/09/13 09:35:35;;;;;;;3.20;0.77;;;21.70;99.90;;;;;;5048022;28;20058;-81
2022/09/13 09:38:30;;;;;;;2.25;0.60;;;22.30;99.90;;;;;;5013613;28;20129;-82
2022/09/13 09:41:00;;;;;;;2.78;0.70;;;22.70;99.90;;;;;;4990625;28;20038;-82
2022/09/13 09:43:38;;;;;;;3.42;0.70;;;23.20;99.90;;;;;;4996350;28;20106;-80
2022/09/13 09:46:05;;;;;;;0.70;0.43;;;23.50;99.90;;;;;;5012286;28;20022;-82
2022/09/13 09:48:40;;;;;;;2.08;0.50;;;23.70;99.90;;;;;;4996278;28;20038;-81
2022/09/13 09:51:09;;;;;;;2.78;0.60;;;24.00;99.90;;;;;;5002720;28;20045;-80
2022/09/13 09:53:43;;;;;;;2.33;0.70;;;24.40;99.90;;;;;;5014928;28;20120;-81
2022/09/13 09:56:24;;;;;;;1.65;0.50;;;24.50;99.90;;;;;;5014483;28;20057;-81
2022/09/13 09:58:53;;;;;;;3.20;0.60;;;24.90;99.90;;;;;;4980201;28;20049;-81
2022/09/13 10:01:22;;;;;;;1.77;0.40;;;25.20;99.90;;;;;;4996171;28;20490;-81
2022/09/13 10:04:00;;;;;;;1.35;0.40;;;25.60;99.90;;;;;;4981468;28;20066;-80
2022/09/13 10:06:28;;;;;;;1.65;0.47;;;25.80;99.90;;;;;;4996353;28;20098;-81
2022/09/13 10:09:02;;;;;;;2.17;0.50;;;25.70;99.90;;;;;;4994032;28;20069;-81
2022/09/13 10:11:39;;;;;;;7.38;0.65;;;25.50;99.90;;;;;;4963554;28;20506;-81
2022/09/13 10:14:36;;;;;;;1.95;0.70;;;25.00;99.90;;;;;;4993123;28;20517;-81
2022/09/13 10:17:25;;;;;;;4.45;0.70;;;24.40;99.90;;;;;;4978897;28;20053;-81
2022/09/13 10:20:00;;;;;;;5.40;0.60;;;24.10;99.90;;;;;;4962273;28;20482;-79
2022/09/13 10:22:31;;;;;;;1.33;0.35;;;24.00;99.90;;;;;;4976654;28;20034;-81
2022/09/13 10:25:28;;;;;;;1.17;0.43;;;23.90;99.90;;;;;;4963553;28;20401;-80
2022/09/13 10:27:56;;;;;;;3.80;0.50;;;23.80;99.90;;;;;;5005432;28;20044;-82
2022/09/13 10:30:46;;;;;;;3.20;0.95;;;23.80;99.90;;;;;;4970288;28;20193;-82
2022/09/13 10:33:38;;;;;;;1.33;0.55;;;23.60;99.90;;;;;;5003007;28;20061;-82
2022/09/13 10:36:17;;;;;;;3.50;0.60;;;23.50;99.90;;;;;;4984804;28;20042;-82
2022/09/13 10:38:50;;;;;;;1.65;0.40;;;23.40;99.90;;;;;;4997014;28;20060;-81
2022/09/13 10:41:25;;;;;;;1.95;0.55;;;23.20;99.90;;;;;;4991283;28;20046;-82
2022/09/13 10:44:05;;;;;;;2.08;0.65;;;23.10;99.90;;;;;;4982206;28;20046;-80
2022/09/13 10:46:39;;;;;;;3.03;0.73;;;23.20;99.90;;;;;;4998321;28;20111;-83
2022/09/13 10:49:04;;;;;;;4.35;0.60;;;23.10;99.90;;;;;;5000101;28;20041;-82
2022/09/13 10:51:36;;;;;;;4.28;0.65;;;22.90;99.90;;;;;;4997262;28;20037;-83
2022/09/13 10:54:22;;;;;;;1.92;0.50;;;22.60;99.90;;;;;;4986153;28;20038;-81
2022/09/13 10:56:49;;;;;;;2.33;0.40;;;22.50;99.90;;;;;;4962107;28;20038;-82
2022/09/13 10:59:28;;;;;;;3.72;0.60;;;22.50;99.90;;;;;;4958960;28;20072;-81
2022/09/13 11:02:21;;;;;;;3.80;0.80;;;22.50;99.90;;;;;;4960066;28;20045;-85
2022/09/13 11:04:47;;;;;;;3.45;0.60;;;22.60;99.90;;;;;;5002404;28;20046;-84
2022/09/13 11:07:19;;;;;;;1.80;0.55;;;22.80;99.90;;;;;;5004558;28;20121;-82
2022/09/13 11:10:00;;;;;;;3.95;0.70;;;22.80;99.90;;;;;;4962609;28;20048;-82
2022/09/13 11:12:29;;;;;;;5.30;0.73;;;22.90;99.90;;;;;;4995125;28;20045;-82
2022/09/13 11:15:19;;;;;;;4.75;0.57;;;22.80;99.90;;;;;;4974710;28;20110;-82
2022/09/13 11:17:58;;;;;;;3.55;0.50;;;22.70;99.90;;;;;;4974120;28;20414;-82
2022/09/13 11:21:09;;;;;;;5.55;0.88;;;22.50;99.90;;;;;;5004601;28;20047;-83
2022/09/13 11:23:51;;;;;;;3.08;0.60;;;22.30;99.90;;;;;;4992960;28;20109;-83
2022/09/13 11:26:44;;;;;;;3.45;0.88;;;22.00;99.90;;;;;;4986461;28;20042;-84
2022/09/13 11:29:19;;;;;;;6.40;0.63;;;21.90;99.90;;;;;;4992306;28;20160;-86
2022/09/13 11:32:15;;;;;;;5.20;0.50;;;22.00;99.90;;;;;;4976077;28;20564;-87
2022/09/13 11:34:56;;;;;;;0.98;0.70;;;22.10;99.90;;;;;;4974864;28;20037;-86
2022/09/13 11:37:52;;;;;;;2.63;0.50;;;22.20;99.90;;;;;;4974730;28;20094;-84
2022/09/13 11:40:48;;;;;;;2.08;0.60;;;22.40;99.90;;;;;;4974419;28;20050;-84
2022/09/13 11:43:34;;;;;;;2.58;0.60;;;22.50;99.90;;;;;;4990086;28;20129;-84
2022/09/13 11:46:35;;;;;;;2.30;0.70;;;22.80;99.90;;;;;;4990793;28;20138;-87
2022/09/13 11:49:09;;;;;;;1.17;0.30;;;22.80;99.90;;;;;;4974176;28;20183;-84
2022/09/13 11:52:05;;;;;;;0.75;0.47;;;23.00;99.90;;;;;;4990983;28;20053;-84
2022/09/13 11:54:58;;;;;;;4.53;0.80;;;23.20;99.90;;;;;;4976034;28;20041;-85
2022/09/13 11:57:33;;;;;;;3.50;0.65;;;23.10;99.90;;;;;;4992173;28;20042;-84
2022/09/13 12:00:18;;;;;;;3.22;0.55;;;22.90;99.90;;;;;;4992166;28;20121;-84
2022/09/13 12:03:14;;;;;;;2.45;0.60;;;22.80;99.90;;;;;;4996012;28;20094;-83
2022/09/13 12:06:04;;;;;;;3.25;0.55;;;22.70;99.90;;;;;;4998844;28;20060;-82
2022/09/13 12:08:41;;;;;;;4.13;0.60;;;22.60;99.90;;;;;;5002377;28;20093;-84
2022/09/13 12:11:14;;;;;;;2.67;0.40;;;22.70;99.90;;;;;;5002025;28;20037;-83
2022/09/13 12:14:02;;;;;;;4.10;0.40;;;22.70;99.90;;;;;;5001947;28;20052;-85
2022/09/13 12:16:32;;;;;;;2.22;0.50;;;22.80;99.90;;;;;;5018201;27;20033;-86
2022/09/13 12:19:03;;;;;;;5.35;0.80;;;22.80;99.90;;;;;;5016994;28;20044;-85
2022/09/13 12:21:37;;;;;;;4.32;0.40;;;22.90;99.90;;;;;;4984776;28;20118;-86
2022/09/13 12:24:45;;;;;;;1.90;0.47;;;23.00;99.90;;;;;;4975892;28;20042;-87
2022/09/13 12:27:31;;;;;;;5.18;0.75;;;23.30;99.90;;;;;;4991892;28;20703;-85
2022/09/13 12:30:16;;;;;;;2.80;0.65;;;23.40;98.50;;;;;;4992201;28;20147;-84
2022/09/13 12:32:44;;;;;;;2.97;0.57;;;23.50;99.90;;;;;;4988872;23;20077;-84
2022/09/13 12:35:47;;;;;;;3.92;0.80;;;23.40;99.90;;;;;;5053650;28;20131;-85
2022/09/13 12:38:45;;;;;;;2.75;0.90;;;23.30;98.40;;;;;;5037414;28;20169;-83
2022/09/13 12:41:34;;;;;;;2.50;0.60;;;23.30;99.10;;;;;;5053730;28;20143;-85
2022/09/13 12:44:47;;;;;;;7.30;1.05;;;23.20;99.90;;;;;;5036905;28;20040;-85
2022/09/13 12:48:00;;;;;;;;;;;;;;;;;;;;;
2022/09/13 12:51:12;;;;;;;3.33;0.82;;;23.10;99.90;;;;;;5057473;28;20049;-84
2022/09/13 12:53:41;;;;;;;5.50;0.68;;;23.20;96.50;;;;;;5147453;23;20041;-85
2022/09/13 12:56:54;;;;;;;4.55;0.60;;;23.10;99.90;;;;;;4973593;28;20522;-84
2022/09/13 12:59:47;;;;;;;6.10;1.00;;;23.10;99.20;;;;;;4991396;28;20375;-85
2022/09/13 13:03:09;;;;;;;2.67;0.68;;;23.10;99.90;;;;;;4983289;28;20120;-81
2022/09/13 13:09:20;;;;;;;5.03;0.70;;;23.00;99.00;;;;;;4931467;29;20052;-85
2022/09/13 13:18:35;;;;;;;6.22;0.80;;;22.60;99.70;;;;;;4954134;28;20069;-83
2022/09/13 13:21:04;;;;;;;5.25;0.73;;;22.60;99.90;;;;;;5004400;28;20056;-84
2022/09/13 13:23:42;;;;;;;1.50;0.50;;;22.70;99.90;;;;;;5057601;28;20044;-83
2022/09/13 13:26:20;;;;;;;3.90;0.35;;;22.90;98.70;;;;;;5077309;28;20075;-85
2022/09/13 13:29:11;;;;;;;2.28;0.38;;;22.90;96.10;;;;;;5059740;28;20064;-85
2022/09/13 13:31:39;;;;;;;6.00;0.93;;;22.80;96.70;;;;;;5060480;28;20036;-84
2022/09/13 13:34:13;;;;;;;3.42;0.47;;;22.90;97.10;;;;;;5076777;28;20047;-84
2022/09/13 13:36:39;;;;;;;1.83;0.30;;;23.00;96.20;;;;;;5076798;28;20523;-84
2022/09/13 13:39:26;;;;;;;1.60;0.70;;;23.00;96.40;;;;;;5060411;28;20079;-84
2022/09/13 13:41:57;;;;;;;1.73;0.47;;;23.10;94.70;;;;;;5076325;28;20051;-81
2022/09/13 13:44:23;;;;;;;;;;;23.10;94.90;;;;;;5076979;28;20040;-80
2022/09/13 13:46:49;;;;;;;2.85;0.70;;;22.90;94.70;;;;;;5059938;28;19923;-80